sensor_id;sensor_type;location;lat;lon;timestamp;pressure;altitude;pressure_sealevel;temperature;humidity
6028;BME280;3042;43.194;27.646;2022-12-04T00:02:18;103155.94;;;13.49;100.00
6028;BME280;3042;43.194;27.646;2022-12-04T00:04:45;103140.06;;;13.33;100.00
6028;BME280;3042;43.194;27.646;2022-12-04T00:07:12;103156.59;;;13.58;100.00
6028;BME280;3042;43.194;27.646;2022-12-04T00:09:41;103155.63;;;13.69;100.00
6028;BME280;3042;43.194;27.646;2022-12-04T00:12:08;103110.78;;;13.23;100.00
6028;BME280;3042;43.194;27.646;2022-12-04T00:14:35;103173.56;;;13.41;100.00
6028;BME280;3042;43.194;27.646;2022-12-04T00:17:02;103178.19;;;13.34;100.00
6028;BME280;3042;43.194;27.646;2022-12-04T00:19:30;103174.50;;;13.30;100.00
6028;BME280;3042;43.194;27.646;2022-12-04T00:21:57;103186.19;;;13.13;100.00
6028;BME280;3042;43.194;27.646;2022-12-04T00:24:24;103185.28;;;13.13;100.00
6028;BME280;3042;43.194;27.646;2022-12-04T00:26:53;102990.38;;;11.90;100.00
6028;BME280;3042;43.194;27.646;2022-12-04T00:29:20;103183.91;;;12.82;100.00
6028;BME280;3042;43.194;27.646;2022-12-04T00:31:47;103103.31;;;12.22;100.00
6028;BME280;3042;43.194;27.646;2022-12-04T00:34:14;103192.03;;;12.63;100.00
6028;BME280;3042;43.194;27.646;2022-12-04T00:36:41;103186.84;;;12.63;100.00
6028;BME280;3042;43.194;27.646;2022-12-04T00:39:09;103184.59;;;12.68;100.00
6028;BME280;3042;43.194;27.646;2022-12-04T00:41:37;103169.84;;;12.79;100.00
6028;BME280;3042;43.194;27.646;2022-12-04T00:44:05;103176.94;;;12.81;100.00
6028;BME280;3042;43.194;27.646;2022-12-04T00:46:32;103180.63;;;12.73;100.00
6028;BME280;3042;43.194;27.646;2022-12-04T00:49:00;103117.13;;;12.44;100.00
6028;BME280;3042;43.194;27.646;2022-12-04T00:51:27;103180.91;;;12.42;100.00
6028;BME280;3042;43.194;27.646;2022-12-04T00:53:54;103184.59;;;12.22;100.00
6028;BME280;3042;43.194;27.646;2022-12-04T00:56:23;103176.09;;;12.13;100.00
6028;BME280;3042;43.194;27.646;2022-12-04T00:58:52;103165.09;;;12.28;100.00
6028;BME280;3042;43.194;27.646;2022-12-04T01:01:22;103154.06;;;12.30;100.00
6028;BME280;3042;43.194;27.646;2022-12-04T01:03:50;103156.66;;;12.30;100.00
6028;BME280;3042;43.194;27.646;2022-12-04T01:06:19;103085.25;;;12.12;100.00
6028;BME280;3042;43.194;27.646;2022-12-04T01:08:47;103146.00;;;12.61;100.00
6028;BME280;3042;43.194;27.646;2022-12-04T01:11:14;103141.50;;;12.70;100.00
6028;BME280;3042;43.194;27.646;2022-12-04T01:13:41;103053.28;;;12.11;100.00
6028;BME280;3042;43.194;27.646;2022-12-04T01:16:15;103142.19;;;12.79;100.00
6028;BME280;3042;43.194;27.646;2022-12-04T01:18:44;103143.97;;;12.80;100.00
6028;BME280;3042;43.194;27.646;2022-12-04T01:21:11;103145.59;;;12.78;100.00
6028;BME280;3042;43.194;27.646;2022-12-04T01:23:38;103148.75;;;12.74;100.00
6028;BME280;3042;43.194;27.646;2022-12-04T01:26:06;103144.44;;;12.86;100.00
6028;BME280;3042;43.194;27.646;2022-12-04T01:28:33;103134.75;;;12.96;100.00
6028;BME280;3042;43.194;27.646;2022-12-04T01:31:03;103128.88;;;13.10;100.00
6028;BME280;3042;43.194;27.646;2022-12-04T01:33:31;103133.59;;;13.04;100.00
6028;BME280;3042;43.194;27.646;2022-12-04T01:36:02;103133.38;;;13.13;100.00
6028;BME280;3042;43.194;27.646;2022-12-04T01:38:29;103133.59;;;13.16;100.00
6028;BME280;3042;43.194;27.646;2022-12-04T01:40:57;103127.38;;;13.25;100.00
6028;BME280;3042;43.194;27.646;2022-12-04T01:43:26;103081.94;;;13.07;100.00
6028;BME280;3042;43.194;27.646;2022-12-04T01:45:55;103133.16;;;13.33;100.00
6028;BME280;3042;43.194;27.646;2022-12-04T01:48:26;103121.16;;;13.47;100.00
6028;BME280;3042;43.194;27.646;2022-12-04T01:51:01;103124.91;;;13.39;100.00
6028;BME280;3042;43.194;27.646;2022-12-04T01:53:32;103135.19;;;13.25;100.00
6028;BME280;3042;43.194;27.646;2022-12-04T01:56:01;103141.84;;;13.10;100.00
6028;BME280;3042;43.194;27.646;2022-12-04T01:58:32;103132.69;;;13.15;100.00
6028;BME280;3042;43.194;27.646;2022-12-04T02:01:04;102982.06;;;12.18;100.00
6028;BME280;3042;43.194;27.646;2022-12-04T02:03:32;103142.31;;;12.93;100.00
6028;BME280;3042;43.194;27.646;2022-12-04T02:06:01;103143.09;;;12.92;100.00
6028;BME280;3042;43.194;27.646;2022-12-04T02:08:28;103155.16;;;12.67;100.00
6028;BME280;3042;43.194;27.646;2022-12-04T02:11:05;103143.28;;;12.71;100.00
6028;BME280;3042;43.194;27.646;2022-12-04T02:13:40;103140.16;;;12.75;100.00
6028;BME280;3042;43.194;27.646;2022-12-04T02:16:13;103091.63;;;12.27;100.00
6028;BME280;3042;43.194;27.646;2022-12-04T02:18:53;103140.81;;;12.61;100.00
6028;BME280;3042;43.194;27.646;2022-12-04T02:21:29;103137.44;;;12.62;100.00
6028;BME280;3042;43.194;27.646;2022-12-04T02:24:19;103151.66;;;12.67;100.00
6028;BME280;3042;43.194;27.646;2022-12-04T02:26:50;103152.09;;;12.73;100.00
6028;BME280;3042;43.194;27.646;2022-12-04T02:29:30;103148.63;;;12.96;100.00
6028;BME280;3042;43.194;27.646;2022-12-04T02:32:15;103148.28;;;12.92;100.00
6028;BME280;3042;43.194;27.646;2022-12-04T02:34:49;103152.09;;;12.97;100.00
6028;BME280;3042;43.194;27.646;2022-12-04T02:37:23;103143.34;;;12.95;100.00
6028;BME280;3042;43.194;27.646;2022-12-04T02:39:56;103146.69;;;12.94;100.00
6028;BME280;3042;43.194;27.646;2022-12-04T02:42:32;103135.88;;;13.11;100.00
6028;BME280;3042;43.194;27.646;2022-12-04T02:45:05;103136.75;;;13.23;100.00
6028;BME280;3042;43.194;27.646;2022-12-04T02:47:35;103135.44;;;13.28;100.00
6028;BME280;3042;43.194;27.646;2022-12-04T02:50:08;102993.53;;;12.57;100.00
6028;BME280;3042;43.194;27.646;2022-12-04T02:52:40;103117.34;;;13.42;100.00
6028;BME280;3042;43.194;27.646;2022-12-04T02:55:12;103110.66;;;13.45;100.00
6028;BME280;3042;43.194;27.646;2022-12-04T02:57:46;103014.16;;;12.91;100.00
6028;BME280;3042;43.194;27.646;2022-12-04T03:00:17;103118.59;;;13.35;100.00
6028;BME280;3042;43.194;27.646;2022-12-04T03:02:46;103113.94;;;13.43;100.00
6028;BME280;3042;43.194;27.646;2022-12-04T03:05:16;103120.03;;;13.43;100.00
6028;BME280;3042;43.194;27.646;2022-12-04T03:07:47;103110.97;;;13.50;100.00
6028;BME280;3042;43.194;27.646;2022-12-04T03:10:18;103121.56;;;13.53;100.00
6028;BME280;3042;43.194;27.646;2022-12-04T03:12:51;103120.44;;;13.61;100.00
6028;BME280;3042;43.194;27.646;2022-12-04T03:15:25;103122.66;;;13.68;100.00
6028;BME280;3042;43.194;27.646;2022-12-04T03:17:57;103124.97;;;13.52;100.00
6028;BME280;3042;43.194;27.646;2022-12-04T03:20:28;103126.56;;;13.50;100.00
6028;BME280;3042;43.194;27.646;2022-12-04T03:23:02;103127.94;;;13.45;100.00
6028;BME280;3042;43.194;27.646;2022-12-04T03:25:34;103120.03;;;13.43;100.00
6028;BME280;3042;43.194;27.646;2022-12-04T03:28:06;103125.22;;;13.43;100.00
6028;BME280;3042;43.194;27.646;2022-12-04T03:30:42;103124.31;;;13.43;100.00
6028;BME280;3042;43.194;27.646;2022-12-04T03:33:15;103132.13;;;13.43;100.00
6028;BME280;3042;43.194;27.646;2022-12-04T03:35:48;103122.94;;;13.48;100.00
6028;BME280;3042;43.194;27.646;2022-12-04T03:38:21;103128.16;;;13.48;100.00
6028;BME280;3042;43.194;27.646;2022-12-04T03:40:59;103117.75;;;13.48;100.00
6028;BME280;3042;43.194;27.646;2022-12-04T03:43:32;103126.16;;;13.44;100.00
6028;BME280;3042;43.194;27.646;2022-12-04T03:46:08;103126.78;;;13.53;100.00
6028;BME280;3042;43.194;27.646;2022-12-04T03:48:38;103131.34;;;13.44;100.00
6028;BME280;3042;43.194;27.646;2022-12-04T03:51:12;103136.97;;;13.26;100.00
6028;BME280;3042;43.194;27.646;2022-12-04T03:53:44;103151.44;;;12.87;100.00
6028;BME280;3042;43.194;27.646;2022-12-04T03:56:17;103148.78;;;12.40;100.00
6028;BME280;3042;43.194;27.646;2022-12-04T03:58:48;103164.41;;;12.18;100.00
6028;BME280;3042;43.194;27.646;2022-12-04T04:01:21;103157.69;;;12.32;100.00
6028;BME280;3042;43.194;27.646;2022-12-04T04:03:51;103067.75;;;11.19;100.00
6028;BME280;3042;43.194;27.646;2022-12-04T04:06:22;103163.31;;;12.04;100.00
6028;BME280;3042;43.194;27.646;2022-12-04T04:08:54;103156.91;;;11.99;100.00
6028;BME280;3042;43.194;27.646;2022-12-04T04:11:26;103156.97;;;12.23;100.00
6028;BME280;3042;43.194;27.646;2022-12-04T04:13:57;103129.00;;;12.19;100.00
6028;BME280;3042;43.194;27.646;2022-12-04T04:16:50;103153.19;;;12.41;100.00
6028;BME280;3042;43.194;27.646;2022-12-04T04:19:38;103160.44;;;12.45;100.00
6028;BME280;3042;43.194;27.646;2022-12-04T04:22:25;103166.22;;;12.65;100.00
6028;BME280;3042;43.194;27.646;2022-12-04T04:25:12;103087.75;;;12.22;100.00
6028;BME280;3042;43.194;27.646;2022-12-04T04:27:41;103166.78;;;12.73;100.00
6028;BME280;3042;43.194;27.646;2022-12-04T04:30:08;103175.78;;;12.66;100.00
6028;BME280;3042;43.194;27.646;2022-12-04T04:32:40;103177.81;;;12.70;100.00
6028;BME280;3042;43.194;27.646;2022-12-04T04:35:16;103181.66;;;12.75;100.00
6028;BME280;3042;43.194;27.646;2022-12-04T04:37:53;103171.41;;;12.31;100.00
6028;BME280;3042;43.194;27.646;2022-12-04T04:40:26;103169.03;;;12.22;100.00
6028;BME280;3042;43.194;27.646;2022-12-04T04:42:59;103165.34;;;11.87;100.00
6028;BME280;3042;43.194;27.646;2022-12-04T04:45:33;103211.34;;;11.89;100.00
6028;BME280;3042;43.194;27.646;2022-12-04T04:48:07;103204.28;;;11.76;100.00
6028;BME280;3042;43.194;27.646;2022-12-04T04:50:36;103203.69;;;11.58;100.00
6028;BME280;3042;43.194;27.646;2022-12-04T04:53:07;103210.50;;;11.46;100.00
6028;BME280;3042;43.194;27.646;2022-12-04T04:55:35;103214.78;;;11.46;100.00
6028;BME280;3042;43.194;27.646;2022-12-04T04:58:07;103212.25;;;11.57;100.00
6028;BME280;3042;43.194;27.646;2022-12-04T05:00:35;103212.03;;;11.54;100.00
6028;BME280;3042;43.194;27.646;2022-12-04T05:03:04;103215.44;;;11.33;100.00
6028;BME280;3042;43.194;27.646;2022-12-04T05:05:31;103219.94;;;11.03;100.00
6028;BME280;3042;43.194;27.646;2022-12-04T05:07:58;103211.38;;;11.04;100.00
6028;BME280;3042;43.194;27.646;2022-12-04T05:10:26;103208.19;;;11.39;100.00
6028;BME280;3042;43.194;27.646;2022-12-04T05:12:53;103206.56;;;11.51;100.00
6028;BME280;3042;43.194;27.646;2022-12-04T05:15:20;103206.84;;;11.54;100.00
6028;BME280;3042;43.194;27.646;2022-12-04T05:17:47;103167.28;;;11.67;100.00
6028;BME280;3042;43.194;27.646;2022-12-04T05:20:16;103197.41;;;11.87;100.00
6028;BME280;3042;43.194;27.646;2022-12-04T05:22:42;103202.81;;;11.90;100.00
6028;BME280;3042;43.194;27.646;2022-12-04T05:25:09;103200.16;;;12.00;100.00
6028;BME280;3042;43.194;27.646;2022-12-04T05:27:37;103199.91;;;11.97;100.00
6028;BME280;3042;43.194;27.646;2022-12-04T05:30:05;103189.34;;;12.28;100.00
6028;BME280;3042;43.194;27.646;2022-12-04T05:32:33;103197.72;;;12.14;100.00
6028;BME280;3042;43.194;27.646;2022-12-04T05:35:00;103191.38;;;12.32;100.00
6028;BME280;3042;43.194;27.646;2022-12-04T05:37:29;103199.44;;;12.59;100.00
6028;BME280;3042;43.194;27.646;2022-12-04T05:39:56;103210.09;;;12.62;100.00
6028;BME280;3042;43.194;27.646;2022-12-04T05:42:23;103199.47;;;12.71;100.00
6028;BME280;3042;43.194;27.646;2022-12-04T05:44:50;103202.75;;;12.80;100.00
6028;BME280;3042;43.194;27.646;2022-12-04T05:47:17;103199.06;;;12.76;100.00
6028;BME280;3042;43.194;27.646;2022-12-04T05:49:45;103209.66;;;12.79;100.00
6028;BME280;3042;43.194;27.646;2022-12-04T05:52:12;103132.84;;;12.24;100.00
6028;BME280;3042;43.194;27.646;2022-12-04T05:54:41;103213.44;;;12.61;100.00
6028;BME280;3042;43.194;27.646;2022-12-04T05:57:08;103216.19;;;12.40;100.00
6028;BME280;3042;43.194;27.646;2022-12-04T05:59:35;103219.28;;;12.46;100.00
6028;BME280;3042;43.194;27.646;2022-12-04T06:02:02;103218.03;;;12.41;100.00
6028;BME280;3042;43.194;27.646;2022-12-04T06:04:30;103146.13;;;12.17;100.00
6028;BME280;3042;43.194;27.646;2022-12-04T06:06:57;103213.69;;;12.76;100.00
6028;BME280;3042;43.194;27.646;2022-12-04T06:09:24;103208.28;;;12.84;100.00
6028;BME280;3042;43.194;27.646;2022-12-04T06:11:56;103204.28;;;13.12;100.00
6028;BME280;3042;43.194;27.646;2022-12-04T06:14:23;103215.75;;;13.03;100.00
6028;BME280;3042;43.194;27.646;2022-12-04T06:16:53;102809.84;;;11.08;100.00
6028;BME280;3042;43.194;27.646;2022-12-04T06:19:21;103126.63;;;12.79;100.00
6028;BME280;3042;43.194;27.646;2022-12-04T06:21:52;103069.44;;;12.66;100.00
6028;BME280;3042;43.194;27.646;2022-12-04T06:24:21;103068.06;;;12.71;100.00
6028;BME280;3042;43.194;27.646;2022-12-04T06:26:49;103053.09;;;12.55;100.00
6028;BME280;3042;43.194;27.646;2022-12-04T06:29:18;103201.44;;;13.67;100.00
6028;BME280;3042;43.194;27.646;2022-12-04T06:31:46;103208.78;;;13.61;100.00
6028;BME280;3042;43.194;27.646;2022-12-04T06:34:13;103212.19;;;13.60;100.00
6028;BME280;3042;43.194;27.646;2022-12-04T06:36:40;103202.75;;;13.62;100.00
6028;BME280;3042;43.194;27.646;2022-12-04T06:39:08;103207.19;;;13.63;100.00
6028;BME280;3042;43.194;27.646;2022-12-04T06:41:35;103210.13;;;13.56;100.00
6028;BME280;3042;43.194;27.646;2022-12-04T06:44:03;103146.69;;;13.17;100.00
6028;BME280;3042;43.194;27.646;2022-12-04T06:46:32;103206.50;;;13.66;100.00
6028;BME280;3042;43.194;27.646;2022-12-04T06:49:00;103208.09;;;13.64;100.00
6028;BME280;3042;43.194;27.646;2022-12-04T06:51:30;103206.50;;;13.66;100.00
6028;BME280;3042;43.194;27.646;2022-12-04T06:53:58;103206.28;;;13.63;100.00
6028;BME280;3042;43.194;27.646;2022-12-04T06:56:27;103028.50;;;12.74;100.00
6028;BME280;3042;43.194;27.646;2022-12-04T06:58:57;103203.41;;;13.83;100.00
6028;BME280;3042;43.194;27.646;2022-12-04T07:01:27;103198.97;;;13.94;100.00
6028;BME280;3042;43.194;27.646;2022-12-04T07:03:56;103138.97;;;13.54;100.00
6028;BME280;3042;43.194;27.646;2022-12-04T07:06:27;102945.97;;;12.44;100.00
6028;BME280;3042;43.194;27.646;2022-12-04T07:08:58;103208.91;;;13.88;100.00
6028;BME280;3042;43.194;27.646;2022-12-04T07:11:26;103204.69;;;13.77;100.00
6028;BME280;3042;43.194;27.646;2022-12-04T07:13:53;103200.78;;;13.83;100.00
6028;BME280;3042;43.194;27.646;2022-12-04T07:16:22;103142.31;;;13.77;100.00
6028;BME280;3042;43.194;27.646;2022-12-04T07:18:50;102740.69;;;11.41;100.00
6028;BME280;3042;43.194;27.646;2022-12-04T07:21:22;103147.19;;;13.97;100.00
6028;BME280;3042;43.194;27.646;2022-12-04T07:23:50;103199.06;;;14.21;100.00
6028;BME280;3042;43.194;27.646;2022-12-04T07:26:18;103073.22;;;13.55;100.00
6028;BME280;3042;43.194;27.646;2022-12-04T07:28:46;103069.63;;;13.53;100.00
6028;BME280;3042;43.194;27.646;2022-12-04T07:31:16;103187.25;;;14.38;100.00
6028;BME280;3042;43.194;27.646;2022-12-04T07:33:44;102975.38;;;13.05;100.00
6028;BME280;3042;43.194;27.646;2022-12-04T07:36:14;103197.59;;;14.49;100.00
6028;BME280;3042;43.194;27.646;2022-12-04T07:38:43;103196.44;;;14.57;100.00
6028;BME280;3042;43.194;27.646;2022-12-04T07:41:11;103193.81;;;14.57;100.00
6028;BME280;3042;43.194;27.646;2022-12-04T07:43:39;103203.19;;;14.42;100.00
6028;BME280;3042;43.194;27.646;2022-12-04T07:46:08;103201.16;;;14.51;100.00
6028;BME280;3042;43.194;27.646;2022-12-04T07:48:36;102905.31;;;12.68;100.00
6028;BME280;3042;43.194;27.646;2022-12-04T07:51:04;103197.06;;;14.67;100.00
6028;BME280;3042;43.194;27.646;2022-12-04T07:53:34;103201.44;;;14.68;100.00
6028;BME280;3042;43.194;27.646;2022-12-04T07:56:04;103194.25;;;14.77;100.00
6028;BME280;3042;43.194;27.646;2022-12-04T07:58:32;103192.97;;;14.70;100.00
6028;BME280;3042;43.194;27.646;2022-12-04T08:01:09;103191.69;;;14.90;100.00
6028;BME280;3042;43.194;27.646;2022-12-04T08:03:37;103194.06;;;14.74;100.00
6028;BME280;3042;43.194;27.646;2022-12-04T08:06:05;103193.66;;;14.81;100.00
6028;BME280;3042;43.194;27.646;2022-12-04T08:08:33;103191.47;;;14.87;100.00
6028;BME280;3042;43.194;27.646;2022-12-04T08:11:04;103176.97;;;15.04;100.00
6028;BME280;3042;43.194;27.646;2022-12-04T08:13:32;103180.56;;;14.93;100.00
6028;BME280;3042;43.194;27.646;2022-12-04T08:16:00;103177.69;;;15.15;100.00
6028;BME280;3042;43.194;27.646;2022-12-04T08:18:27;103175.47;;;15.08;100.00
6028;BME280;3042;43.194;27.646;2022-12-04T08:21:02;103171.84;;;15.46;100.00
6028;BME280;3042;43.194;27.646;2022-12-04T08:23:29;103183.25;;;15.21;100.00
6028;BME280;3042;43.194;27.646;2022-12-04T08:25:57;103181.47;;;15.20;100.00
6028;BME280;3042;43.194;27.646;2022-12-04T08:28:26;102955.50;;;13.68;100.00
6028;BME280;3042;43.194;27.646;2022-12-04T08:30:54;103180.16;;;15.00;100.00
6028;BME280;3042;43.194;27.646;2022-12-04T08:33:21;103184.97;;;15.07;100.00
6028;BME280;3042;43.194;27.646;2022-12-04T08:35:48;103172.66;;;15.18;100.00
6028;BME280;3042;43.194;27.646;2022-12-04T08:38:15;102997.34;;;14.24;100.00
6028;BME280;3042;43.194;27.646;2022-12-04T08:40:42;103165.50;;;15.29;100.00
6028;BME280;3042;43.194;27.646;2022-12-04T08:43:10;103159.81;;;15.34;100.00
6028;BME280;3042;43.194;27.646;2022-12-04T08:45:38;103160.28;;;15.55;100.00
6028;BME280;3042;43.194;27.646;2022-12-04T08:48:06;103160.78;;;15.50;100.00
6028;BME280;3042;43.194;27.646;2022-12-04T08:50:33;103084.94;;;15.04;100.00
6028;BME280;3042;43.194;27.646;2022-12-04T08:53:00;103082.09;;;15.14;100.00
6028;BME280;3042;43.194;27.646;2022-12-04T08:55:28;103154.03;;;15.67;100.00
6028;BME280;3042;43.194;27.646;2022-12-04T08:57:55;103159.25;;;15.67;100.00
6028;BME280;3042;43.194;27.646;2022-12-04T09:00:22;102808.28;;;13.55;100.00
6028;BME280;3042;43.194;27.646;2022-12-04T09:02:53;103162.00;;;15.41;100.00
6028;BME280;3042;43.194;27.646;2022-12-04T09:05:20;103173.66;;;14.80;100.00
6028;BME280;3042;43.194;27.646;2022-12-04T09:07:47;103166.56;;;14.52;100.00
6028;BME280;3042;43.194;27.646;2022-12-04T09:10:15;103150.41;;;14.83;100.00
6028;BME280;3042;43.194;27.646;2022-12-04T09:12:42;103142.41;;;14.93;100.00
6028;BME280;3042;43.194;27.646;2022-12-04T09:15:10;103144.81;;;14.90;100.00
6028;BME280;3042;43.194;27.646;2022-12-04T09:17:37;103152.22;;;14.84;100.00
6028;BME280;3042;43.194;27.646;2022-12-04T09:20:07;103058.09;;;14.38;100.00
6028;BME280;3042;43.194;27.646;2022-12-04T09:22:35;103161.56;;;14.17;100.00
6028;BME280;3042;43.194;27.646;2022-12-04T09:25:03;103145.09;;;14.30;100.00
6028;BME280;3042;43.194;27.646;2022-12-04T09:27:35;103084.88;;;14.37;100.00
6028;BME280;3042;43.194;27.646;2022-12-04T09:30:03;103134.91;;;14.33;100.00
6028;BME280;3042;43.194;27.646;2022-12-04T09:32:30;103135.00;;;14.34;100.00
6028;BME280;3042;43.194;27.646;2022-12-04T09:34:57;103044.25;;;14.12;100.00
6028;BME280;3042;43.194;27.646;2022-12-04T09:37:26;103129.53;;;14.43;100.00
6028;BME280;3042;43.194;27.646;2022-12-04T09:39:53;103124.69;;;14.61;100.00
6028;BME280;3042;43.194;27.646;2022-12-04T09:42:30;103109.38;;;15.06;100.00
6028;BME280;3042;43.194;27.646;2022-12-04T09:45:04;103057.28;;;15.06;100.00
6028;BME280;3042;43.194;27.646;2022-12-04T09:47:38;103003.22;;;14.88;100.00
6028;BME280;3042;43.194;27.646;2022-12-04T09:50:12;103085.16;;;15.76;100.00
6028;BME280;3042;43.194;27.646;2022-12-04T09:52:48;103049.66;;;15.78;100.00
6028;BME280;3042;43.194;27.646;2022-12-04T09:55:20;102935.59;;;15.31;100.00
6028;BME280;3042;43.194;27.646;2022-12-04T09:57:51;103076.50;;;16.20;100.00
6028;BME280;3042;43.194;27.646;2022-12-04T10:00:21;103070.53;;;16.08;100.00
6028;BME280;3042;43.194;27.646;2022-12-04T10:02:50;102928.44;;;15.57;100.00
6028;BME280;3042;43.194;27.646;2022-12-04T10:05:25;103072.84;;;16.48;100.00
6028;BME280;3042;43.194;27.646;2022-12-04T10:08:07;103067.53;;;16.61;100.00
6028;BME280;3042;43.194;27.646;2022-12-04T10:10:38;102804.34;;;14.99;100.00
6028;BME280;3042;43.194;27.646;2022-12-04T10:13:21;103064.00;;;16.76;100.00
6028;BME280;3042;43.194;27.646;2022-12-04T10:15:54;103065.81;;;16.77;100.00
6028;BME280;3042;43.194;27.646;2022-12-04T10:18:36;102857.53;;;15.62;100.00
6028;BME280;3042;43.194;27.646;2022-12-04T10:24:16;102993.47;;;16.59;100.00
6028;BME280;3042;43.194;27.646;2022-12-04T10:26:48;103026.41;;;16.72;100.00
6028;BME280;3042;43.194;27.646;2022-12-04T10:29:18;103047.78;;;16.96;100.00
6028;BME280;3042;43.194;27.646;2022-12-04T10:31:48;103039.13;;;16.97;100.00
6028;BME280;3042;43.194;27.646;2022-12-04T10:34:18;103043.97;;;17.06;100.00
6028;BME280;3042;43.194;27.646;2022-12-04T10:36:51;103037.44;;;17.14;100.00
6028;BME280;3042;43.194;27.646;2022-12-04T10:39:23;103030.84;;;17.21;100.00
6028;BME280;3042;43.194;27.646;2022-12-04T10:41:56;102985.44;;;17.02;100.00
6028;BME280;3042;43.194;27.646;2022-12-04T10:44:25;103046.66;;;16.61;100.00
6028;BME280;3042;43.194;27.646;2022-12-04T10:46:58;102952.38;;;16.40;100.00
6028;BME280;3042;43.194;27.646;2022-12-04T10:49:28;103028.00;;;16.85;100.00
6028;BME280;3042;43.194;27.646;2022-12-04T10:51:55;103015.44;;;16.48;100.00
6028;BME280;3042;43.194;27.646;2022-12-04T10:54:30;103035.53;;;16.95;100.00
6028;BME280;3042;43.194;27.646;2022-12-04T10:56:59;103029.50;;;16.96;100.00
6028;BME280;3042;43.194;27.646;2022-12-04T10:59:28;102720.56;;;15.22;100.00
6028;BME280;3042;43.194;27.646;2022-12-04T11:01:59;102743.38;;;15.40;100.00
6028;BME280;3042;43.194;27.646;2022-12-04T11:04:29;103012.28;;;17.00;100.00
6028;BME280;3042;43.194;27.646;2022-12-04T11:07:02;102961.09;;;16.87;100.00
6028;BME280;3042;43.194;27.646;2022-12-04T11:09:32;103012.13;;;17.29;100.00
6028;BME280;3042;43.194;27.646;2022-12-04T11:12:06;103005.66;;;17.39;100.00
6028;BME280;3042;43.194;27.646;2022-12-04T11:14:34;103007.50;;;17.24;100.00
6028;BME280;3042;43.194;27.646;2022-12-04T11:17:04;102997.53;;;17.33;100.00
6028;BME280;3042;43.194;27.646;2022-12-04T11:19:35;102991.72;;;17.39;100.00
6028;BME280;3042;43.194;27.646;2022-12-04T11:22:11;102992.94;;;17.45;100.00
6028;BME280;3042;43.194;27.646;2022-12-04T11:24:41;103001.13;;;17.35;100.00
6028;BME280;3042;43.194;27.646;2022-12-04T11:27:18;102994.41;;;17.40;100.00
6028;BME280;3042;43.194;27.646;2022-12-04T11:29:47;102796.84;;;15.95;100.00
6028;BME280;3042;43.194;27.646;2022-12-04T11:32:20;102999.16;;;17.31;100.00
6028;BME280;3042;43.194;27.646;2022-12-04T11:34:49;103006.84;;;17.12;100.00
6028;BME280;3042;43.194;27.646;2022-12-04T11:37:19;102962.72;;;16.85;100.00
6028;BME280;3042;43.194;27.646;2022-12-04T11:39:50;102868.97;;;16.42;100.00
6028;BME280;3042;43.194;27.646;2022-12-04T11:42:21;102834.91;;;16.08;100.00
6028;BME280;3042;43.194;27.646;2022-12-04T11:44:51;102932.94;;;16.66;100.00
6028;BME280;3042;43.194;27.646;2022-12-04T11:47:20;102986.34;;;16.72;100.00
6028;BME280;3042;43.194;27.646;2022-12-04T11:49:57;102617.34;;;14.92;100.00
6028;BME280;3042;43.194;27.646;2022-12-04T11:52:36;102738.50;;;15.78;100.00
6028;BME280;3042;43.194;27.646;2022-12-04T11:55:14;102748.97;;;15.94;100.00
6028;BME280;3042;43.194;27.646;2022-12-04T11:57:48;102992.69;;;17.24;100.00
6028;BME280;3042;43.194;27.646;2022-12-04T12:00:20;102869.41;;;16.18;100.00
6028;BME280;3042;43.194;27.646;2022-12-04T12:03:01;102996.44;;;16.97;100.00
6028;BME280;3042;43.194;27.646;2022-12-04T12:06:12;102987.19;;;16.87;100.00
6028;BME280;3042;43.194;27.646;2022-12-04T12:08:55;102976.53;;;16.67;100.00
6028;BME280;3042;43.194;27.646;2022-12-04T12:11:30;102989.00;;;16.88;100.00
6028;BME280;3042;43.194;27.646;2022-12-04T12:14:06;102986.56;;;16.76;100.00
6028;BME280;3042;43.194;27.646;2022-12-04T12:16:46;102992.00;;;16.64;100.00
6028;BME280;3042;43.194;27.646;2022-12-04T12:22:35;102740.56;;;14.63;100.00
6028;BME280;3042;43.194;27.646;2022-12-04T12:25:12;103004.16;;;15.88;100.00
6028;BME280;3042;43.194;27.646;2022-12-04T12:27:58;102787.34;;;14.48;100.00
6028;BME280;3042;43.194;27.646;2022-12-04T12:30:30;102863.19;;;15.11;100.00
6028;BME280;3042;43.194;27.646;2022-12-04T12:33:09;103001.47;;;15.87;100.00
6028;BME280;3042;43.194;27.646;2022-12-04T12:35:46;102997.50;;;15.78;100.00
6028;BME280;3042;43.194;27.646;2022-12-04T12:38:18;102932.50;;;15.24;100.00
6028;BME280;3042;43.194;27.646;2022-12-04T12:40:52;102996.88;;;15.82;100.00
6028;BME280;3042;43.194;27.646;2022-12-04T12:43:26;102984.75;;;15.98;100.00
6028;BME280;3042;43.194;27.646;2022-12-04T12:45:59;102978.97;;;16.03;100.00
6028;BME280;3042;43.194;27.646;2022-12-04T12:48:33;102976.63;;;16.23;100.00
6028;BME280;3042;43.194;27.646;2022-12-04T12:51:06;102601.41;;;13.84;100.00
6028;BME280;3042;43.194;27.646;2022-12-04T12:53:39;102989.47;;;16.35;100.00
6028;BME280;3042;43.194;27.646;2022-12-04T12:56:10;102988.50;;;16.33;100.00
6028;BME280;3042;43.194;27.646;2022-12-04T12:58:43;102964.91;;;16.31;100.00
6028;BME280;3042;43.194;27.646;2022-12-04T13:01:17;102973.63;;;16.46;100.00
6028;BME280;3042;43.194;27.646;2022-12-04T13:03:49;102943.03;;;16.44;100.00
6028;BME280;3042;43.194;27.646;2022-12-04T13:06:27;102971.31;;;16.67;100.00
6028;BME280;3042;43.194;27.646;2022-12-04T13:09:04;102976.19;;;16.61;100.00
6028;BME280;3042;43.194;27.646;2022-12-04T13:11:32;102521.16;;;12.91;100.00
6028;BME280;3042;43.194;27.646;2022-12-04T13:14:02;102994.84;;;15.63;100.00
6028;BME280;3042;43.194;27.646;2022-12-04T13:16:33;103007.81;;;15.06;100.00